Time;durP1;ratioP1;P1;durP2;ratioP2;P2;SDS_P1;SDS_P2;PMS_P1;PMS_P2;Temp;Humidity;BMP_temperature;BMP_pressure;BME280_temperature;BME280_humidity;BME280_pressure;Samples;Min_cycle;Max_cycle;Signal;HPM_P1;HPM_P2
2022/07/02 00:00:06;;;;;;;2.40;1.75;;;13.30;99.90;;;;;;5032990;28;20030;-66
2022/07/02 00:02:36;;;;;;;3.22;2.03;;;13.30;99.90;;;;;;5042958;28;20096;-66
2022/07/02 00:05:04;;;;;;;4.65;2.33;;;13.20;99.90;;;;;;5071478;28;20016;-66
2022/07/02 00:07:30;;;;;;;4.88;1.98;;;13.20;99.90;;;;;;5070498;28;20103;-65
2022/07/02 00:09:58;;;;;;;3.70;2.40;;;13.10;99.90;;;;;;5070934;28;20104;-65
2022/07/02 00:12:25;;;;;;;5.32;2.17;;;13.20;99.90;;;;;;5070646;28;20033;-66
2022/07/02 00:14:54;;;;;;;3.40;2.00;;;13.20;99.90;;;;;;5070450;28;20021;-65
2022/07/02 00:17:21;;;;;;;4.50;2.60;;;13.20;99.90;;;;;;5062079;28;20391;-66
2022/07/02 00:19:47;;;;;;;4.95;2.35;;;13.10;99.90;;;;;;5050774;28;20029;-66
2022/07/02 00:22:14;;;;;;;4.30;2.28;;;13.20;99.90;;;;;;5050806;28;20021;-66
2022/07/02 00:24:41;;;;;;;4.65;2.22;;;13.10;99.90;;;;;;5070900;28;20127;-66
2022/07/02 00:27:12;;;;;;;4.00;1.95;;;13.20;99.90;;;;;;5070936;28;20027;-65
2022/07/02 00:29:51;;;;;;;3.42;2.03;;;13.10;99.90;;;;;;5070372;28;20111;-65
2022/07/02 00:32:17;;;;;;;2.30;2.00;;;13.10;99.90;;;;;;5070187;28;20103;-66
2022/07/02 00:34:44;;;;;;;3.33;2.42;;;13.10;99.90;;;;;;5068465;28;20554;-65
2022/07/02 00:37:11;;;;;;;6.47;2.80;;;13.10;99.90;;;;;;5070257;28;20039;-66
2022/07/02 00:39:37;;;;;;;7.88;2.13;;;13.10;99.90;;;;;;5070326;28;20020;-66
2022/07/02 00:42:08;;;;;;;2.80;2.30;;;13.00;99.90;;;;;;5068312;28;20017;-66
2022/07/02 00:44:34;;;;;;;4.40;2.53;;;12.90;99.90;;;;;;5050237;28;20415;-66
2022/07/02 00:47:05;;;;;;;3.70;2.38;;;13.00;99.90;;;;;;5050734;28;20033;-66
2022/07/02 00:49:33;;;;;;;10.60;3.15;;;12.90;99.90;;;;;;5051458;28;20035;-66
2022/07/02 00:51:59;;;;;;;2.78;2.45;;;12.90;99.90;;;;;;5050155;28;20108;-66
2022/07/02 00:54:25;;;;;;;4.22;2.85;;;12.90;99.90;;;;;;5053713;28;20043;-65
2022/07/02 00:56:52;;;;;;;10.57;3.00;;;12.80;99.90;;;;;;5070269;28;20440;-65
2022/07/02 00:59:18;;;;;;;11.07;3.08;;;12.70;99.90;;;;;;5069835;28;20415;-65
2022/07/02 01:01:43;;;;;;;4.88;2.65;;;12.60;99.90;;;;;;5070241;28;20693;-66
2022/07/02 01:04:13;;;;;;;5.18;2.92;;;12.50;99.90;;;;;;5069442;28;20025;-65
2022/07/02 01:06:41;;;;;;;5.55;3.10;;;12.40;99.90;;;;;;5070210;28;20033;-66
2022/07/02 01:12:01;;;;;;;7.47;3.10;;;12.60;99.90;;;;;;5049596;28;20078;-65
2022/07/02 01:14:27;;;;;;;8.27;2.90;;;12.50;99.90;;;;;;5049676;28;20033;-66
2022/07/02 01:16:53;;;;;;;4.82;3.40;;;12.40;99.90;;;;;;5048362;28;20028;-66
2022/07/02 01:19:21;;;;;;;12.45;4.20;;;12.40;99.90;;;;;;5049649;28;20025;-65
2022/07/02 01:22:05;;;;;;;15.93;5.72;;;12.30;99.90;;;;;;5049470;28;20052;-66
2022/07/02 01:24:31;;;;;;;11.88;5.07;;;12.30;99.90;;;;;;5065741;28;20036;-66
2022/07/02 01:26:56;;;;;;;9.68;4.90;;;12.30;99.90;;;;;;5069972;28;20028;-66
2022/07/02 01:29:22;;;;;;;10.93;5.05;;;12.30;99.90;;;;;;5068728;28;20056;-66
2022/07/02 01:31:47;;;;;;;8.48;4.03;;;12.40;99.90;;;;;;5069743;28;20032;-66
2022/07/02 01:34:13;;;;;;;10.98;4.38;;;12.40;99.90;;;;;;5056716;28;20040;-65
2022/07/02 01:36:39;;;;;;;8.35;4.45;;;12.40;99.90;;;;;;5049696;28;20033;-66
2022/07/02 01:39:04;;;;;;;13.20;4.13;;;12.40;99.90;;;;;;5048193;28;20052;-66
2022/07/02 01:41:39;;;;;;;9.50;4.50;;;12.40;99.90;;;;;;5049518;28;20059;-66
2022/07/02 01:44:08;;;;;;;;;;;12.30;99.90;;;;;;5050149;28;20052;-65
2022/07/02 01:46:34;;;;;;;6.53;3.42;;;12.30;99.90;;;;;;5049760;28;19909;-66
2022/07/02 01:49:00;;;;;;;10.90;3.92;;;12.20;99.90;;;;;;5029932;28;20044;-66
2022/07/02 01:51:26;;;;;;;5.82;3.40;;;12.20;99.90;;;;;;5029056;28;20025;-66
2022/07/02 01:53:51;;;;;;;6.63;3.33;;;12.20;99.90;;;;;;5029585;28;20026;-66
2022/07/02 01:56:17;;;;;;;5.95;3.63;;;12.10;99.90;;;;;;5032184;28;20040;-66
2022/07/02 01:58:43;;;;;;;8.65;3.72;;;12.00;99.90;;;;;;5031369;28;20022;-66
2022/07/02 02:01:09;;;;;;;5.57;2.85;;;12.00;99.90;;;;;;5050645;28;20036;-66
2022/07/02 02:03:34;;;;;;;6.05;3.40;;;11.90;99.90;;;;;;5049943;28;20037;-66
2022/07/02 02:06:00;;;;;;;4.75;3.47;;;11.90;99.90;;;;;;5049056;28;20115;-66
2022/07/02 02:08:25;;;;;;;9.98;3.40;;;11.90;99.90;;;;;;5049995;28;20049;-66
2022/07/02 02:10:51;;;;;;;11.20;3.35;;;12.00;99.90;;;;;;5068783;28;20033;-66
2022/07/02 02:13:16;;;;;;;5.32;3.10;;;12.00;99.90;;;;;;5069372;28;20111;-66
2022/07/02 02:15:42;;;;;;;5.85;3.05;;;11.90;99.90;;;;;;5054935;28;20071;-66
2022/07/02 02:18:08;;;;;;;3.33;3.03;;;11.90;99.90;;;;;;5049482;28;20036;-66
2022/07/02 02:20:34;;;;;;;9.77;3.47;;;11.90;99.90;;;;;;5049470;28;20056;-66
2022/07/02 02:23:01;;;;;;;5.45;3.22;;;12.00;99.90;;;;;;5049697;28;20034;-65
2022/07/02 02:25:26;;;;;;;10.63;3.63;;;12.00;99.90;;;;;;5049453;28;20021;-66
2022/07/02 02:27:52;;;;;;;9.02;3.28;;;12.00;99.90;;;;;;5049388;28;20080;-66
2022/07/02 02:30:17;;;;;;;5.13;2.95;;;12.10;99.90;;;;;;5062312;28;20111;-66
2022/07/02 02:32:43;;;;;;;6.55;3.15;;;12.10;99.90;;;;;;5066088;28;20110;-66
2022/07/02 02:35:09;;;;;;;3.90;2.80;;;12.20;99.90;;;;;;5053298;28;20402;-65
2022/07/02 02:37:34;;;;;;;9.25;3.40;;;12.20;99.90;;;;;;5053435;28;20029;-66
2022/07/02 02:40:00;;;;;;;16.65;3.90;;;12.10;99.90;;;;;;5053155;28;20048;-66
2022/07/02 02:42:25;;;;;;;4.60;3.20;;;12.10;99.90;;;;;;5052824;28;20048;-66
2022/07/02 02:44:51;;;;;;;7.95;3.38;;;12.10;99.90;;;;;;5060534;28;20029;-66
2022/07/02 02:47:16;;;;;;;5.65;3.22;;;12.00;99.90;;;;;;5066194;28;20513;-66
2022/07/02 02:49:42;;;;;;;5.32;2.80;;;11.90;99.90;;;;;;5072943;28;20035;-65
2022/07/02 02:52:07;;;;;;;4.75;3.40;;;11.90;99.90;;;;;;5072456;28;20067;-66
2022/07/02 02:54:33;;;;;;;13.23;2.75;;;12.00;99.90;;;;;;5071068;28;20063;-66
2022/07/02 02:56:58;;;;;;;5.28;2.78;;;11.90;99.90;;;;;;5072654;28;20111;-66
2022/07/02 02:59:24;;;;;;;6.22;3.08;;;11.90;99.90;;;;;;5072882;28;20116;-65
2022/07/02 03:01:49;;;;;;;5.82;3.50;;;11.80;99.90;;;;;;5072409;28;20047;-66
2022/07/02 03:04:15;;;;;;;9.13;2.70;;;11.80;99.90;;;;;;5057002;28;20037;-65
2022/07/02 03:06:41;;;;;;;7.88;2.75;;;11.80;99.90;;;;;;5052305;28;20513;-65
2022/07/02 03:09:06;;;;;;;3.95;2.97;;;11.80;99.90;;;;;;5063251;28;20099;-65
2022/07/02 03:11:32;;;;;;;4.55;3.33;;;11.70;99.90;;;;;;5072252;28;20032;-66
2022/07/02 03:13:58;;;;;;;4.10;3.60;;;11.70;99.90;;;;;;5071924;28;20040;-65
2022/07/02 03:16:23;;;;;;;5.82;3.35;;;11.70;99.90;;;;;;5072437;28;20032;-66
2022/07/02 03:18:49;;;;;;;6.38;3.17;;;11.60;99.90;;;;;;5072416;28;20028;-66
2022/07/02 03:21:14;;;;;;;3.13;2.55;;;11.60;99.90;;;;;;5072092;28;20025;-65
2022/07/02 03:23:40;;;;;;;8.13;3.05;;;11.60;99.90;;;;;;5059342;28;20107;-66
2022/07/02 03:26:05;;;;;;;5.90;3.15;;;11.60;99.90;;;;;;5052146;28;20051;-66
2022/07/02 03:28:31;;;;;;;11.05;3.40;;;11.60;99.90;;;;;;5051815;28;20346;-65
2022/07/02 03:30:57;;;;;;;5.68;3.58;;;11.50;99.90;;;;;;5052112;28;20406;-66
2022/07/02 03:33:22;;;;;;;6.55;2.97;;;11.50;99.90;;;;;;5051797;28;20390;-66
2022/07/02 03:35:48;;;;;;;3.85;3.08;;;11.40;99.90;;;;;;5051470;28;20041;-66
2022/07/02 03:38:14;;;;;;;7.10;3.22;;;11.30;99.90;;;;;;5069799;28;20040;-66
2022/07/02 03:40:39;;;;;;;9.63;3.63;;;11.40;99.90;;;;;;5072534;28;20017;-66
2022/07/02 03:43:05;;;;;;;9.05;3.95;;;11.40;99.90;;;;;;5071300;28;20027;-66
2022/07/02 03:45:30;;;;;;;8.32;3.65;;;11.40;99.90;;;;;;5087365;22;20057;-59
2022/07/02 03:47:56;;;;;;;6.05;3.55;;;11.30;99.90;;;;;;5071640;28;20032;-57
2022/07/02 03:50:21;;;;;;;7.05;3.22;;;11.30;99.90;;;;;;5071448;28;20034;-55
2022/07/02 03:52:47;;;;;;;5.60;3.22;;;11.40;99.90;;;;;;5084838;28;20036;-59
2022/07/02 03:55:13;;;;;;;4.57;3.85;;;11.40;99.90;;;;;;5091331;28;20024;-58
2022/07/02 03:57:38;;;;;;;5.40;3.58;;;11.50;99.90;;;;;;5075705;28;20047;-58
2022/07/02 04:00:06;;;;;;;7.55;3.53;;;11.50;99.90;;;;;;5071092;28;20474;-60
2022/07/02 04:02:31;;;;;;;5.85;3.35;;;11.60;99.90;;;;;;5070172;28;20100;-59
2022/07/02 04:04:57;;;;;;;5.82;4.03;;;11.60;99.90;;;;;;5058049;28;20108;-58
2022/07/02 04:07:22;;;;;;;6.60;2.95;;;11.60;99.90;;;;;;5071082;28;20087;-57
2022/07/02 04:09:48;;;;;;;8.25;3.72;;;11.70;99.90;;;;;;5071006;28;20127;-55
2022/07/02 04:12:14;;;;;;;9.43;3.60;;;11.70;99.90;;;;;;5069946;28;20024;-57
2022/07/02 04:14:39;;;;;;;13.48;4.07;;;11.80;99.90;;;;;;5070771;28;20028;-59
2022/07/02 04:17:05;;;;;;;6.45;3.80;;;11.90;99.90;;;;;;5070628;28;20029;-55
2022/07/02 04:19:30;;;;;;;5.18;3.60;;;11.90;99.90;;;;;;5071061;28;20390;-55
2022/07/02 04:21:56;;;;;;;7.05;3.67;;;11.90;99.90;;;;;;5071080;28;20024;-56
2022/07/02 04:24:22;;;;;;;9.38;3.58;;;12.00;99.90;;;;;;5070442;28;20455;-57
2022/07/02 04:26:48;;;;;;;10.65;4.40;;;12.00;99.90;;;;;;5070495;28;20029;-58
2022/07/02 04:29:13;;;;;;;5.57;3.80;;;12.00;99.90;;;;;;5070693;28;20059;-57
2022/07/02 04:31:39;;;;;;;6.35;4.25;;;12.10;99.90;;;;;;5070880;28;20032;-56
2022/07/02 04:34:04;;;;;;;10.60;4.03;;;12.10;99.90;;;;;;5070506;28;20436;-56
2022/07/02 04:36:30;;;;;;;7.95;3.97;;;12.10;99.90;;;;;;5078369;28;20032;-58
2022/07/02 04:38:56;;;;;;;5.90;3.80;;;12.10;99.90;;;;;;5090694;28;20056;-56
2022/07/02 04:41:21;;;;;;;6.18;4.07;;;12.20;99.90;;;;;;5090452;28;20021;-58
2022/07/02 04:43:47;;;;;;;7.90;4.70;;;12.30;99.90;;;;;;5090474;28;20471;-59
2022/07/02 04:46:12;;;;;;;10.00;4.47;;;12.30;99.90;;;;;;5089855;28;20035;-58
2022/07/02 04:48:38;;;;;;;7.50;4.20;;;12.40;99.90;;;;;;5090999;28;20051;-55
2022/07/02 04:51:03;;;;;;;11.60;4.43;;;12.50;99.90;;;;;;5076021;28;20035;-57
2022/07/02 04:53:29;;;;;;;11.20;4.50;;;12.50;99.90;;;;;;5069495;28;20220;-59
2022/07/02 04:55:54;;;;;;;8.23;4.22;;;12.60;99.90;;;;;;5071471;28;20520;-59
2022/07/02 04:58:20;;;;;;;6.60;3.95;;;12.70;99.90;;;;;;5069824;28;20024;-57
2022/07/02 05:00:45;;;;;;;9.18;4.30;;;12.80;99.90;;;;;;5070133;28;20024;-58
2022/07/02 05:03:11;;;;;;;6.60;5.10;;;12.80;99.90;;;;;;5069759;28;20530;-59
2022/07/02 05:05:36;;;;;;;8.57;4.85;;;12.90;99.90;;;;;;5069996;28;20025;-59
2022/07/02 05:08:02;;;;;;;6.50;4.80;;;12.90;99.90;;;;;;5071868;28;20043;-59
2022/07/02 05:10:27;;;;;;;11.07;4.68;;;13.00;99.90;;;;;;5090237;28;20032;-59
2022/07/02 05:12:53;;;;;;;9.55;4.47;;;13.10;99.90;;;;;;5090272;28;20445;-59
2022/07/02 05:15:19;;;;;;;8.15;5.53;;;13.10;99.90;;;;;;5090144;28;20525;-58
2022/07/02 05:17:44;;;;;;;8.70;4.93;;;13.20;99.90;;;;;;5089907;28;20520;-59
2022/07/02 05:20:10;;;;;;;9.30;4.55;;;13.20;99.90;;;;;;5089689;28;20028;-58
2022/07/02 05:22:35;;;;;;;8.32;4.50;;;13.20;99.90;;;;;;5088666;28;20032;-58
2022/07/02 05:25:01;;;;;;;8.50;4.22;;;13.30;99.90;;;;;;5069250;28;20016;-57
2022/07/02 05:27:26;;;;;;;8.38;4.75;;;13.40;99.90;;;;;;5069672;28;20029;-58
2022/07/02 05:29:52;;;;;;;5.75;4.60;;;13.40;99.90;;;;;;5069529;28;20063;-57
2022/07/02 05:32:17;;;;;;;11.68;4.25;;;13.50;99.90;;;;;;5069184;28;20036;-57
2022/07/02 05:34:43;;;;;;;5.00;4.50;;;13.60;99.90;;;;;;5069249;28;20028;-59
2022/07/02 05:37:08;;;;;;;12.02;4.97;;;13.70;99.90;;;;;;5074869;28;20096;-56
2022/07/02 05:39:34;;;;;;;6.18;4.07;;;13.70;99.90;;;;;;5089652;28;20036;-59
2022/07/02 05:41:59;;;;;;;6.50;4.35;;;13.80;99.90;;;;;;5089230;28;20035;-56
2022/07/02 05:44:25;;;;;;;10.65;4.10;;;13.90;99.90;;;;;;5089104;28;20035;-59
2022/07/02 05:46:51;;;;;;;7.93;4.07;;;13.90;99.90;;;;;;5089718;28;20032;-57
2022/07/02 05:49:16;;;;;;;7.30;3.67;;;14.00;99.90;;;;;;5089322;28;20020;-59
2022/07/02 05:51:42;;;;;;;11.63;3.30;;;14.00;99.90;;;;;;5084478;28;20541;-58
2022/07/02 05:54:07;;;;;;;8.50;3.50;;;14.10;99.90;;;;;;5069226;28;20060;-60
2022/07/02 05:56:33;;;;;;;7.60;3.20;;;14.10;99.90;;;;;;5068608;28;20036;-58
2022/07/02 05:58:59;;;;;;;5.78;2.88;;;14.20;99.90;;;;;;5069071;28;20446;-59
2022/07/02 06:01:25;;;;;;;3.17;2.65;;;14.30;99.90;;;;;;5068785;28;20086;-59
2022/07/02 06:03:50;;;;;;;6.30;2.60;;;14.40;99.90;;;;;;5068932;28;20487;-59
2022/07/02 06:09:00;;;;;;;5.67;2.50;;;14.50;99.90;;;;;;5093040;28;20146;-59
2022/07/02 06:11:25;;;;;;;4.10;2.40;;;14.60;99.90;;;;;;5093388;28;20373;-59
2022/07/02 06:13:51;;;;;;;6.20;2.53;;;14.70;99.90;;;;;;5079497;28;20031;-59
2022/07/02 06:16:16;;;;;;;12.38;2.53;;;14.70;99.90;;;;;;5072718;28;20039;-59
2022/07/02 06:18:42;;;;;;;8.63;2.83;;;14.80;99.90;;;;;;5072774;28;20047;-59
2022/07/02 06:21:07;;;;;;;3.17;2.00;;;14.90;99.90;;;;;;5072890;28;20402;-59
2022/07/02 06:23:33;;;;;;;5.53;2.28;;;14.90;99.90;;;;;;5072596;28;20025;-58
2022/07/02 06:25:58;;;;;;;5.78;1.80;;;15.00;99.90;;;;;;5072682;28;20023;-59
2022/07/02 06:28:24;;;;;;;2.53;1.83;;;15.10;99.90;;;;;;5072699;28;20020;-58
2022/07/02 06:30:49;;;;;;;3.80;2.35;;;15.20;99.90;;;;;;5072813;28;20446;-60
2022/07/02 06:33:15;;;;;;;2.08;1.73;;;15.30;99.90;;;;;;5073269;28;20119;-60
2022/07/02 06:35:42;;;;;;;2.97;1.70;;;15.40;99.90;;;;;;5090221;28;20032;-60
2022/07/02 06:38:08;;;;;;;3.10;2.10;;;15.50;99.90;;;;;;5094436;28;20543;-59
2022/07/02 06:40:34;;;;;;;3.10;1.95;;;15.60;99.90;;;;;;5094072;28;20032;-60
2022/07/02 06:42:59;;;;;;;4.53;2.10;;;15.70;99.90;;;;;;5093712;28;20104;-60
2022/07/02 06:45:25;;;;;;;2.95;1.92;;;15.80;99.90;;;;;;5093779;28;20035;-60
2022/07/02 06:47:50;;;;;;;4.15;1.88;;;15.90;99.90;;;;;;5093688;28;20028;-60
2022/07/02 06:50:18;;;;;;;4.53;1.90;;;16.00;99.90;;;;;;5078749;28;20024;-60
2022/07/02 06:52:45;;;;;;;3.40;1.92;;;16.20;99.90;;;;;;5073334;28;20421;-59
2022/07/02 06:55:11;;;;;;;2.25;1.30;;;16.20;99.90;;;;;;5080022;28;20032;-60
2022/07/02 06:57:38;;;;;;;6.30;1.90;;;16.30;99.90;;;;;;5078302;28;20029;-60
2022/07/02 07:00:05;;;;;;;3.38;1.80;;;16.40;99.90;;;;;;5073344;28;20030;-59
2022/07/02 07:02:30;;;;;;;1.90;1.60;;;16.50;99.90;;;;;;5073138;28;20140;-60
2022/07/02 07:04:56;;;;;;;3.08;1.73;;;16.60;99.90;;;;;;5073627;28;20500;-60
2022/07/02 07:07:29;;;;;;;8.57;1.75;;;16.80;99.90;;;;;;5073154;28;20024;-58
2022/07/02 07:09:55;;;;;;;2.10;1.15;;;16.90;99.90;;;;;;5082640;28;20089;-58
2022/07/02 07:12:21;;;;;;;2.05;1.40;;;17.00;99.90;;;;;;5093323;28;20522;-59
2022/07/02 07:14:46;;;;;;;2.15;1.10;;;17.10;99.90;;;;;;5093505;28;20107;-58
2022/07/02 07:17:12;;;;;;;1.65;1.27;;;17.20;99.90;;;;;;5093359;28;20047;-59
2022/07/02 07:19:37;;;;;;;3.20;1.92;;;17.20;99.90;;;;;;5093245;28;20024;-60
2022/07/02 07:22:03;;;;;;;3.45;1.50;;;17.30;99.90;;;;;;5093491;28;20052;-60
2022/07/02 07:24:30;;;;;;;2.10;1.17;;;17.50;99.90;;;;;;5090410;28;20029;-60
2022/07/02 07:26:57;;;;;;;2.42;1.15;;;17.60;99.90;;;;;;5091963;28;20032;-60
2022/07/02 07:29:23;;;;;;;3.78;1.10;;;17.70;99.90;;;;;;5093600;28;20020;-59
2022/07/02 07:31:48;;;;;;;5.13;1.55;;;17.90;99.90;;;;;;5093436;28;20031;-59
2022/07/02 07:34:14;;;;;;;1.48;1.10;;;17.90;99.90;;;;;;5093654;28;20038;-59
2022/07/02 07:36:40;;;;;;;3.30;1.45;;;18.00;99.90;;;;;;5093344;28;20073;-59
2022/07/02 07:39:06;;;;;;;5.85;1.27;;;18.10;99.90;;;;;;5079718;28;20440;-60
2022/07/02 07:41:32;;;;;;;2.05;1.05;;;18.10;99.90;;;;;;5073082;28;20050;-60
2022/07/02 07:43:58;;;;;;;2.47;0.90;;;18.20;99.90;;;;;;5073141;28;20017;-60
2022/07/02 07:46:24;;;;;;;1.05;0.95;;;18.30;99.90;;;;;;5073092;28;20097;-59
2022/07/02 07:48:50;;;;;;;2.95;1.10;;;18.30;99.90;;;;;;5073274;28;20024;-56
2022/07/02 07:51:16;;;;;;;2.65;1.10;;;18.40;99.90;;;;;;5072874;28;20020;-58
2022/07/02 07:53:45;;;;;;;3.00;0.90;;;18.60;99.90;;;;;;5074091;28;20031;-59
2022/07/02 07:56:18;;;;;;;2.20;0.85;;;18.60;99.90;;;;;;5072886;28;20446;-57
2022/07/02 07:58:44;;;;;;;2.47;0.73;;;18.70;99.90;;;;;;5085172;28;20032;-58
2022/07/02 08:01:09;;;;;;;5.65;1.13;;;18.80;99.90;;;;;;5085762;28;20100;-57
2022/07/02 08:03:35;;;;;;;2.05;0.85;;;19.00;99.90;;;;;;5052674;28;20104;-60
2022/07/02 08:06:01;;;;;;;1.98;0.90;;;19.00;99.90;;;;;;5052840;28;20055;-59
2022/07/02 08:08:27;;;;;;;1.48;0.82;;;19.10;99.90;;;;;;5091591;28;20529;-60
2022/07/02 08:10:53;;;;;;;3.88;0.77;;;19.20;99.90;;;;;;5092958;28;20352;-59
2022/07/02 08:13:18;;;;;;;1.65;0.80;;;19.20;99.90;;;;;;5085045;28;20012;-60
2022/07/02 08:15:44;;;;;;;3.90;1.00;;;19.40;99.90;;;;;;5072805;28;20024;-59
2022/07/02 08:18:10;;;;;;;0.65;0.60;;;19.40;99.90;;;;;;5072750;28;20478;-60
2022/07/02 08:20:36;;;;;;;3.35;0.70;;;19.50;99.90;;;;;;5072843;28;20392;-57
2022/07/02 08:23:02;;;;;;;1.48;0.75;;;19.60;99.90;;;;;;5072121;28;20024;-60
2022/07/02 08:25:27;;;;;;;1.63;0.50;;;19.80;99.90;;;;;;5072446;28;20035;-59
2022/07/02 08:27:53;;;;;;;1.23;0.60;;;19.80;99.90;;;;;;5072317;28;20024;-59
2022/07/02 08:30:19;;;;;;;2.22;0.60;;;19.90;99.90;;;;;;5071929;28;20020;-60
2022/07/02 08:32:44;;;;;;;1.17;0.65;;;20.00;99.90;;;;;;5075069;28;20028;-60
2022/07/02 08:35:10;;;;;;;8.60;0.85;;;20.10;99.90;;;;;;5072230;28;20040;-60
2022/07/02 08:37:35;;;;;;;1.83;0.43;;;20.20;99.90;;;;;;5072037;28;20032;-60
2022/07/02 08:40:01;;;;;;;0.93;0.63;;;20.30;99.90;;;;;;5072045;28;20032;-60
2022/07/02 08:42:29;;;;;;;2.38;0.60;;;20.40;99.90;;;;;;5071476;28;20023;-60
2022/07/02 08:44:57;;;;;;;2.45;0.80;;;20.50;99.90;;;;;;5071846;28;20421;-59
2022/07/02 08:47:23;;;;;;;1.60;0.60;;;20.60;99.90;;;;;;5086454;28;20047;-60
2022/07/02 08:49:51;;;;;;;5.47;0.90;;;20.70;99.90;;;;;;5091999;28;20113;-60
2022/07/02 08:52:20;;;;;;;3.30;0.70;;;20.70;99.90;;;;;;5091665;28;20022;-60
2022/07/02 08:54:47;;;;;;;1.33;0.70;;;20.80;99.90;;;;;;5085157;28;20033;-61
2022/07/02 08:57:14;;;;;;;0.70;0.60;;;20.90;99.90;;;;;;5083045;28;20043;-61
2022/07/02 08:59:40;;;;;;;2.05;0.63;;;21.10;99.90;;;;;;5092113;28;20111;-60
2022/07/02 09:02:07;;;;;;;1.75;0.70;;;21.30;99.90;;;;;;5091757;28;20016;-60
2022/07/02 09:04:34;;;;;;;0.70;0.50;;;21.40;99.90;;;;;;5091799;28;20028;-61
2022/07/02 09:07:02;;;;;;;2.00;0.80;;;21.40;99.90;;;;;;5091647;28;20034;-60
2022/07/02 09:09:29;;;;;;;9.70;0.80;;;21.50;99.90;;;;;;5079844;28;20053;-60
2022/07/02 09:11:56;;;;;;;1.95;0.60;;;21.60;99.90;;;;;;5086463;28;20127;-60
2022/07/02 09:14:22;;;;;;;3.97;0.70;;;21.60;99.90;;;;;;5091563;28;20038;-60
2022/07/02 09:16:49;;;;;;;0.40;0.40;;;21.80;99.90;;;;;;5091465;28;20028;-60
2022/07/02 09:19:16;;;;;;;2.75;0.60;;;22.00;99.90;;;;;;5091495;28;20023;-61
2022/07/02 09:21:51;;;;;;;2.15;0.50;;;22.10;99.90;;;;;;5091322;28;20031;-60
2022/07/02 09:24:30;;;;;;;1.10;0.52;;;22.40;99.90;;;;;;5089826;28;20032;-60
2022/07/02 09:27:12;;;;;;;0.80;0.55;;;22.40;99.90;;;;;;5083101;28;20088;-59
2022/07/02 09:29:42;;;;;;;1.55;0.57;;;22.40;99.90;;;;;;5071292;28;20116;-60
2022/07/02 09:32:08;;;;;;;2.10;0.50;;;22.50;99.90;;;;;;5070915;28;20024;-59
2022/07/02 09:34:33;;;;;;;1.77;0.60;;;22.50;99.90;;;;;;5071059;28;20032;-59
2022/07/02 09:36:59;;;;;;;5.53;0.60;;;22.50;99.90;;;;;;5070896;28;20029;-59
2022/07/02 09:39:31;;;;;;;1.27;0.40;;;22.50;99.90;;;;;;5071156;28;20031;-59
2022/07/02 09:41:57;;;;;;;2.83;0.50;;;22.50;99.90;;;;;;5080298;28;20051;-59
2022/07/02 09:44:26;;;;;;;1.27;0.50;;;22.50;99.90;;;;;;5073503;28;20035;-59
2022/07/02 09:46:51;;;;;;;1.27;0.55;;;22.70;99.90;;;;;;5075466;22;20044;-62
2022/07/02 09:49:17;;;;;;;3.05;0.50;;;23.00;99.90;;;;;;5049685;28;20372;-62
2022/07/02 09:51:53;;;;;;;1.45;0.60;;;23.10;99.90;;;;;;5049566;28;20021;-61
2022/07/02 09:54:20;;;;;;;5.93;0.57;;;23.30;99.90;;;;;;5050076;28;20074;-62
2022/07/02 09:56:54;;;;;;;1.20;0.40;;;23.60;99.90;;;;;;5050978;28;20021;-62
2022/07/02 09:59:20;;;;;;;3.53;0.60;;;23.60;99.90;;;;;;5049863;28;20017;-62
2022/07/02 10:01:46;;;;;;;0.47;0.47;;;23.60;99.90;;;;;;5048606;28;20079;-62
2022/07/02 10:04:12;;;;;;;1.13;0.40;;;23.60;99.90;;;;;;5049746;28;20608;-61
2022/07/02 10:06:38;;;;;;;1.13;0.50;;;23.90;99.90;;;;;;5049619;28;20032;-62
2022/07/02 10:09:05;;;;;;;0.60;0.40;;;23.90;99.90;;;;;;5049681;28;20128;-60
2022/07/02 10:11:31;;;;;;;1.15;0.55;;;23.90;99.90;;;;;;5051849;28;20017;-61
2022/07/02 10:13:58;;;;;;;0.40;0.38;;;23.90;99.90;;;;;;5069722;28;20038;-62
2022/07/02 10:16:25;;;;;;;0.95;0.30;;;23.70;99.90;;;;;;5069493;28;20033;-62
2022/07/02 10:18:52;;;;;;;1.20;0.40;;;23.70;99.90;;;;;;5069330;28;20482;-60
2022/07/02 10:21:18;;;;;;;1.80;0.55;;;24.00;99.90;;;;;;5059442;28;20036;-61
2022/07/02 10:23:45;;;;;;;0.85;0.40;;;24.20;98.80;;;;;;5048503;28;20529;-60
2022/07/02 10:26:11;;;;;;;1.23;0.30;;;24.20;99.60;;;;;;5057628;28;20029;-61
2022/07/02 10:28:37;;;;;;;0.82;0.40;;;23.90;99.30;;;;;;5053153;28;20036;-61
2022/07/02 10:31:06;;;;;;;1.35;0.50;;;24.20;98.70;;;;;;5069516;28;20021;-60
2022/07/02 10:33:35;;;;;;;0.50;0.30;;;24.50;97.80;;;;;;5069605;28;20020;-62
2022/07/02 10:36:02;;;;;;;1.08;0.52;;;24.60;97.70;;;;;;5068986;28;20025;-61
2022/07/02 10:38:37;;;;;;;2.72;0.50;;;24.90;98.70;;;;;;5069872;28;20025;-61
2022/07/02 10:41:03;;;;;;;0.55;0.50;;;25.20;98.00;;;;;;5069339;28;20017;-61
2022/07/02 10:43:33;;;;;;;0.90;0.43;;;25.50;96.00;;;;;;5067911;28;20035;-61
2022/07/02 10:46:03;;;;;;;2.55;0.60;;;25.80;95.90;;;;;;5061117;28;20021;-62
2022/07/02 10:48:29;;;;;;;1.95;0.45;;;25.90;93.50;;;;;;5049477;28;20021;-63
2022/07/02 10:50:58;;;;;;;0.98;0.60;;;25.90;94.20;;;;;;5048829;28;20040;-62
2022/07/02 10:53:27;;;;;;;2.00;0.70;;;25.90;91.90;;;;;;5051692;28;20020;-62
2022/07/02 10:55:58;;;;;;;1.77;0.73;;;25.70;93.70;;;;;;5053745;28;20491;-61
2022/07/02 10:58:32;;;;;;;2.38;0.30;;;25.90;94.80;;;;;;5052883;28;20029;-62
2022/07/02 11:01:13;;;;;;;0.50;0.40;;;25.80;94.10;;;;;;5052194;28;20028;-62
2022/07/02 11:03:50;;;;;;;2.13;0.40;;;26.30;94.60;;;;;;5052742;28;20538;-62
2022/07/02 11:06:24;;;;;;;4.03;0.50;;;26.50;97.90;;;;;;5053259;28;20033;-62
2022/07/02 11:08:51;;;;;;;1.90;0.43;;;26.90;95.50;;;;;;5061277;28;20509;-61
2022/07/02 11:11:41;;;;;;;0.30;0.30;;;26.50;91.40;;;;;;5072515;28;20115;-63
2022/07/02 11:14:15;;;;;;;2.30;0.50;;;26.50;90.10;;;;;;5072699;28;20447;-61
2022/07/02 11:16:49;;;;;;;0.40;0.30;;;26.60;92.40;;;;;;5072061;28;20543;-62
2022/07/02 11:19:19;;;;;;;1.55;0.40;;;26.70;92.80;;;;;;5070407;28;20550;-61
2022/07/02 11:21:49;;;;;;;2.92;0.55;;;26.50;91.90;;;;;;5044164;28;20021;-62
2022/07/02 11:24:16;;;;;;;0.77;0.35;;;27.00;92.50;;;;;;5052728;28;20029;-61
2022/07/02 11:26:42;;;;;;;1.20;0.60;;;27.00;91.10;;;;;;5052403;28;20499;-62
2022/07/02 11:29:09;;;;;;;1.15;0.60;;;26.40;90.70;;;;;;5051997;28;20033;-61
2022/07/02 11:31:37;;;;;;;0.68;0.60;;;26.40;92.10;;;;;;5051910;28;20199;-61
2022/07/02 11:34:03;;;;;;;0.95;0.50;;;26.70;90.00;;;;;;5052166;28;20033;-62
2022/07/02 11:36:29;;;;;;;1.75;0.45;;;26.50;89.90;;;;;;5052299;28;20127;-62
2022/07/02 11:38:55;;;;;;;0.35;0.35;;;26.60;92.20;;;;;;5072647;28;20016;-59
2022/07/02 11:41:23;;;;;;;1.58;0.47;;;27.20;90.90;;;;;;5072002;28;20440;-63
2022/07/02 11:43:54;;;;;;;1.23;0.45;;;27.60;92.30;;;;;;5072156;28;20024;-62
2022/07/02 11:46:22;;;;;;;2.65;0.47;;;27.50;92.60;;;;;;5071482;28;20028;-62
2022/07/02 11:48:49;;;;;;;0.40;0.40;;;27.70;90.20;;;;;;5072055;28;20466;-62
2022/07/02 11:51:16;;;;;;;2.90;0.70;;;27.80;86.70;;;;;;5070939;28;20529;-61
2022/07/02 11:53:42;;;;;;;3.45;0.50;;;27.60;89.10;;;;;;5051783;28;20017;-62
2022/07/02 11:56:13;;;;;;;2.63;0.60;;;27.70;89.10;;;;;;5051881;28;20025;-61
2022/07/02 11:58:46;;;;;;;0.98;0.50;;;27.10;91.10;;;;;;5051282;28;20056;-62
2022/07/02 12:01:21;;;;;;;1.15;0.60;;;27.10;90.40;;;;;;5031575;28;20120;-62
2022/07/02 12:03:48;;;;;;;1.10;0.52;;;26.80;91.80;;;;;;5030928;28;20024;-62
2022/07/02 12:06:14;;;;;;;0.60;0.30;;;26.30;87.00;;;;;;5050879;28;20028;-62
2022/07/02 12:08:41;;;;;;;0.47;0.45;;;26.50;89.60;;;;;;5071996;28;20017;-62
2022/07/02 12:11:15;;;;;;;1.00;0.50;;;26.90;87.30;;;;;;5071525;28;20023;-62
2022/07/02 12:13:41;;;;;;;1.98;0.60;;;26.90;90.80;;;;;;5071657;28;20451;-61
2022/07/02 12:16:10;;;;;;;0.40;0.40;;;27.40;91.70;;;;;;5071380;28;20025;-62
2022/07/02 12:18:36;;;;;;;0.68;0.40;;;27.80;89.30;;;;;;5070978;28;20076;-62
2022/07/02 12:21:13;;;;;;;0.65;0.47;;;28.00;86.70;;;;;;5055434;28;20025;-63
2022/07/02 12:23:50;;;;;;;0.88;0.57;;;27.90;93.90;;;;;;5051109;28;20055;-62
2022/07/02 12:26:22;;;;;;;8.40;2.95;;;27.90;85.70;;;;;;5051332;28;20029;-63
2022/07/02 12:31:51;;;;;;;2.95;0.82;;;28.50;90.40;;;;;;5051221;28;20387;-62
2022/07/02 12:34:19;;;;;;;1.13;0.40;;;28.60;84.70;;;;;;5051697;28;20025;-62
2022/07/02 12:36:46;;;;;;;0.52;0.22;;;28.60;87.20;;;;;;5050805;28;20555;-62
2022/07/02 12:39:11;;;;;;;0.88;0.70;;;28.80;81.20;;;;;;5051107;28;20052;-63
2022/07/02 12:41:41;;;;;;;0.77;0.30;;;28.60;83.00;;;;;;5050257;28;20025;-63
2022/07/02 12:44:15;;;;;;;0.82;0.40;;;28.70;83.00;;;;;;5050910;28;20505;-62
2022/07/02 12:46:51;;;;;;;2.22;0.50;;;28.40;89.10;;;;;;5051416;28;20064;-62
2022/07/02 12:49:20;;;;;;;0.85;0.57;;;28.30;83.10;;;;;;5052253;28;20111;-61
2022/07/02 12:51:59;;;;;;;1.42;0.40;;;28.70;84.70;;;;;;5051880;28;20115;-62